createdAt,value
2022-12-18T00:02:24.928Z,75.72
2022-12-18T00:04:52.930Z,75.76
2022-12-18T00:07:20.805Z,75.48
2022-12-18T00:09:48.683Z,75.64
2022-12-18T00:14:49.393Z,75.48
2022-12-18T00:17:17.251Z,75.55
2022-12-18T00:19:45.132Z,75.72
2022-12-18T00:22:13.065Z,75.77
2022-12-18T00:24:40.968Z,75.72
2022-12-18T00:27:09.415Z,75.67
2022-12-18T00:29:37.312Z,75.68
2022-12-18T00:32:07.812Z,75.80
2022-12-18T00:34:35.742Z,75.71
2022-12-18T00:37:03.677Z,75.56
2022-12-18T00:39:31.600Z,75.61
2022-12-18T00:42:19.292Z,75.79
2022-12-18T00:44:47.158Z,75.92
2022-12-18T00:47:15.026Z,75.79
2022-12-18T00:49:42.887Z,75.49
2022-12-18T00:52:10.769Z,75.55
2022-12-18T00:54:38.670Z,75.33
2022-12-18T00:57:06.591Z,75.37
2022-12-18T00:59:34.519Z,74.85
2022-12-18T01:02:02.562Z,74.87
2022-12-18T01:04:33.147Z,75.05
2022-12-18T01:07:01.904Z,75.23
2022-12-18T01:09:29.795Z,75.54
2022-12-18T01:11:57.785Z,75.58
2022-12-18T01:14:25.765Z,75.62
2022-12-18T01:16:54.683Z,75.27
2022-12-18T01:19:22.624Z,75.04
2022-12-18T01:21:50.650Z,75.36
2022-12-18T01:24:18.631Z,75.22
2022-12-18T01:26:46.804Z,75.19
2022-12-18T01:29:15.876Z,75.12
2022-12-18T01:31:43.916Z,75.22
2022-12-18T01:34:11.812Z,75.10
2022-12-18T01:36:42.811Z,75.20
2022-12-18T01:39:13.699Z,75.13
2022-12-18T01:42:02.420Z,75.14
2022-12-18T01:44:53.471Z,75.15
2022-12-18T01:47:36.236Z,75.17
2022-12-18T01:50:11.548Z,75.07
2022-12-18T01:52:42.069Z,74.98
2022-12-18T01:55:11.971Z,74.96
2022-12-18T01:57:40.814Z,74.93
2022-12-18T02:00:14.892Z,75.03
2022-12-18T02:02:44.602Z,74.96
2022-12-18T02:05:29.865Z,74.86
2022-12-18T02:08:15.021Z,74.85
2022-12-18T02:10:53.989Z,74.87
2022-12-18T02:14:03.996Z,74.82
2022-12-18T02:17:02.135Z,74.46
2022-12-18T02:19:39.218Z,74.42
2022-12-18T02:22:13.203Z,74.03
2022-12-18T02:24:55.097Z,74.12
2022-12-18T02:27:23.629Z,74.49
2022-12-18T02:29:58.328Z,74.40
2022-12-18T02:32:34.894Z,74.16
2022-12-18T02:35:06.767Z,74.26
2022-12-18T02:37:38.153Z,74.35
2022-12-18T02:40:08.038Z,74.34
2022-12-18T02:42:36.975Z,74.07
2022-12-18T02:45:07.359Z,74.08
2022-12-18T02:47:40.266Z,74.12
2022-12-18T02:50:17.504Z,74.32
2022-12-18T02:52:51.647Z,74.46
2022-12-18T02:55:38.589Z,74.37
2022-12-18T02:58:24.089Z,74.44
2022-12-18T03:01:04.831Z,74.59
2022-12-18T03:03:52.903Z,74.63
2022-12-18T03:06:44.896Z,74.44
2022-12-18T03:09:22.760Z,74.36
2022-12-18T03:12:16.233Z,74.66
2022-12-18T03:14:47.313Z,74.75
2022-12-18T03:17:19.180Z,74.86
2022-12-18T03:19:49.465Z,74.69
2022-12-18T03:22:17.910Z,74.52
2022-12-18T03:24:50.017Z,74.63
2022-12-18T03:27:23.216Z,74.62
2022-12-18T03:30:08.343Z,74.58
2022-12-18T03:32:48.815Z,74.59
2022-12-18T03:35:23.837Z,74.53
2022-12-18T03:37:52.314Z,74.51
2022-12-18T03:40:25.537Z,74.49
2022-12-18T03:42:57.793Z,74.54
2022-12-18T03:45:37.560Z,74.63
2022-12-18T03:48:23.607Z,74.56
2022-12-18T03:50:51.625Z,74.56
2022-12-18T03:53:23.509Z,74.51
2022-12-18T03:55:52.872Z,74.54
2022-12-18T03:58:28.257Z,74.72
2022-12-18T04:01:09.941Z,74.72
2022-12-18T04:03:39.383Z,74.53
2022-12-18T04:06:08.651Z,74.49
2022-12-18T04:08:37.055Z,74.32
2022-12-18T04:11:07.354Z,74.43
2022-12-18T04:13:37.731Z,74.35
2022-12-18T04:16:10.450Z,74.44
2022-12-18T04:18:40.975Z,74.39
2022-12-18T04:21:09.667Z,74.38
2022-12-18T04:23:38.479Z,74.40
2022-12-18T04:26:06.567Z,74.40
2022-12-18T04:29:06.767Z,74.22
2022-12-18T04:31:34.736Z,74.34
2022-12-18T04:34:04.213Z,74.26
2022-12-18T04:36:35.093Z,74.21
2022-12-18T04:39:03.306Z,74.34
2022-12-18T04:41:31.992Z,74.31
2022-12-18T04:43:59.919Z,74.28
2022-12-18T04:46:27.909Z,74.15
2022-12-18T04:48:55.906Z,74.08
2022-12-18T04:51:26.682Z,73.92
2022-12-18T04:53:55.154Z,74.08
2022-12-18T04:56:23.516Z,74.19
2022-12-18T04:58:51.476Z,74.31
2022-12-18T05:01:20.118Z,74.14
2022-12-18T05:03:48.526Z,74.06
2022-12-18T05:06:16.533Z,74.28
2022-12-18T05:08:44.627Z,74.30
2022-12-18T05:11:17.655Z,74.17
2022-12-18T05:13:46.436Z,74.05
2022-12-18T05:16:15.374Z,74.01
2022-12-18T05:18:43.467Z,73.99
2022-12-18T05:21:11.361Z,73.99
2022-12-18T05:23:39.630Z,74.00
2022-12-18T05:26:08.861Z,73.96
2022-12-18T05:28:37.376Z,73.94
2022-12-18T05:31:06.044Z,73.76
2022-12-18T05:33:35.772Z,73.85
2022-12-18T05:36:06.756Z,73.72
2022-12-18T05:38:37.079Z,73.54
2022-12-18T05:41:05.803Z,73.45
2022-12-18T05:43:35.941Z,73.32
2022-12-18T05:46:14.290Z,73.34
2022-12-18T05:48:43.423Z,73.28
2022-12-18T05:51:17.187Z,73.27
2022-12-18T05:53:45.878Z,73.32
2022-12-18T05:56:16.774Z,73.32
2022-12-18T05:58:44.954Z,73.30
2022-12-18T06:01:21.054Z,73.26
2022-12-18T06:03:49.631Z,73.23
2022-12-18T06:06:23.428Z,73.23
2022-12-18T06:08:52.346Z,73.18
2022-12-18T06:11:23.355Z,73.14
2022-12-18T06:13:57.821Z,73.07
2022-12-18T06:16:27.166Z,73.10
2022-12-18T06:19:03.557Z,72.93
2022-12-18T06:21:32.734Z,73.00
2022-12-18T06:24:01.881Z,73.01
2022-12-18T06:26:29.729Z,72.94
2022-12-18T06:28:57.863Z,72.89
2022-12-18T06:31:27.229Z,72.87
2022-12-18T06:33:55.238Z,72.85
2022-12-18T06:36:23.309Z,72.76
2022-12-18T06:38:51.256Z,72.76
2022-12-18T06:41:21.476Z,72.81
2022-12-18T06:43:49.552Z,72.54
2022-12-18T06:46:17.516Z,72.71
2022-12-18T06:48:49.642Z,72.76
2022-12-18T06:51:24.821Z,72.77
2022-12-18T06:53:52.900Z,72.78
2022-12-18T06:56:20.868Z,72.76
2022-12-18T06:58:51.942Z,72.72
2022-12-18T07:01:20.069Z,72.71
2022-12-18T07:03:48.358Z,72.73
2022-12-18T07:06:20.901Z,72.80
2022-12-18T07:08:49.633Z,72.72
2022-12-18T07:11:19.100Z,72.78
2022-12-18T07:13:47.437Z,72.73
2022-12-18T07:16:24.209Z,72.81
2022-12-18T07:19:00.200Z,72.75
2022-12-18T07:21:28.243Z,72.77
2022-12-18T07:23:56.112Z,72.79
2022-12-18T07:26:24.181Z,72.98
2022-12-18T07:28:56.194Z,72.96
2022-12-18T07:31:25.093Z,72.90
2022-12-18T07:33:53.804Z,72.82
2022-12-18T07:36:21.799Z,72.88
2022-12-18T07:38:50.852Z,72.90
2022-12-18T07:41:19.819Z,72.86
2022-12-18T07:43:48.222Z,72.85
2022-12-18T07:46:17.625Z,72.83
2022-12-18T07:48:49.426Z,73.03
2022-12-18T07:51:19.475Z,72.95
2022-12-18T07:53:52.122Z,73.07
2022-12-18T07:56:30.450Z,73.02
2022-12-18T07:59:00.183Z,73.10
2022-12-18T08:01:28.853Z,73.14
2022-12-18T08:03:58.266Z,73.19
2022-12-18T08:06:26.783Z,72.97
2022-12-18T08:08:56.080Z,73.04
2022-12-18T08:11:26.141Z,73.13
2022-12-18T08:13:54.665Z,73.07
2022-12-18T08:16:23.466Z,73.08
2022-12-18T08:18:53.407Z,73.02
2022-12-18T08:21:27.616Z,73.06
2022-12-18T08:23:57.872Z,73.13
2022-12-18T08:26:28.016Z,73.04
2022-12-18T08:28:57.479Z,73.09
2022-12-18T08:31:26.936Z,73.10
2022-12-18T08:33:56.085Z,73.05
2022-12-18T08:36:25.555Z,73.12
2022-12-18T08:38:54.803Z,73.20
2022-12-18T08:41:22.871Z,73.36
2022-12-18T08:44:09.584Z,74.16
2022-12-18T08:46:43.218Z,74.05
2022-12-18T08:49:12.533Z,73.70
2022-12-18T08:51:41.128Z,73.55
2022-12-18T08:54:17.208Z,73.50
2022-12-18T08:56:45.074Z,73.24
2022-12-18T08:59:19.202Z,73.42
2022-12-18T09:01:48.672Z,73.36
2022-12-18T09:04:16.839Z,73.39
2022-12-18T09:06:44.771Z,73.43
2022-12-18T09:09:13.480Z,73.32
2022-12-18T09:11:41.467Z,73.45
2022-12-18T09:14:11.020Z,73.39
2022-12-18T09:16:39.058Z,73.40
2022-12-18T09:19:07.359Z,73.24
2022-12-18T09:21:37.250Z,73.37
2022-12-18T09:24:08.858Z,73.35
2022-12-18T09:26:37.961Z,73.27
2022-12-18T09:29:08.170Z,73.42
2022-12-18T09:31:37.476Z,73.44
2022-12-18T09:34:05.928Z,73.24
2022-12-18T09:36:34.090Z,73.32
2022-12-18T09:39:08.589Z,73.34
2022-12-18T09:41:45.184Z,73.21
2022-12-18T09:44:44.436Z,73.27
2022-12-18T09:47:19.956Z,73.31
2022-12-18T09:49:53.955Z,73.19
2022-12-18T09:52:53.984Z,73.15
2022-12-18T09:55:35.133Z,73.33
2022-12-18T09:58:16.573Z,73.31
2022-12-18T10:00:44.949Z,73.34
2022-12-18T10:03:16.344Z,73.33
2022-12-18T10:05:53.860Z,73.42
2022-12-18T10:08:31.269Z,73.25
2022-12-18T10:11:13.225Z,73.14
2022-12-18T10:13:57.517Z,72.97
2022-12-18T10:16:34.994Z,72.86
2022-12-18T10:19:36.931Z,72.85
2022-12-18T10:22:16.890Z,72.90
2022-12-18T10:25:22.466Z,72.82
2022-12-18T10:27:56.321Z,72.77
2022-12-18T10:30:26.284Z,72.72
2022-12-18T10:32:57.490Z,72.60
2022-12-18T10:35:27.830Z,72.44
2022-12-18T10:38:01.942Z,72.33
2022-12-18T10:40:30.453Z,72.24
2022-12-18T10:43:06.295Z,72.16
2022-12-18T10:45:34.535Z,72.19
2022-12-18T10:48:02.550Z,72.04
2022-12-18T10:53:28.497Z,72.07
2022-12-18T10:56:00.038Z,72.01
2022-12-18T10:58:28.003Z,72.02
2022-12-18T11:01:11.259Z,72.16
2022-12-18T11:04:00.416Z,72.10
2022-12-18T11:06:33.587Z,72.08
2022-12-18T11:09:12.204Z,72.01
2022-12-18T11:11:40.771Z,71.90
2022-12-18T11:14:35.021Z,71.90
2022-12-18T11:17:25.230Z,71.92
2022-12-18T11:19:59.102Z,71.81
2022-12-18T11:22:34.330Z,71.57
2022-12-18T11:25:33.412Z,71.49
2022-12-18T11:28:05.668Z,71.31
2022-12-18T11:30:37.469Z,71.26
2022-12-18T11:33:14.261Z,71.38
2022-12-18T11:35:56.949Z,71.26
2022-12-18T11:38:27.796Z,71.25
2022-12-18T11:41:02.112Z,71.17
2022-12-18T11:43:41.897Z,71.04
2022-12-18T11:46:19.602Z,70.89
2022-12-18T11:48:58.230Z,70.95
2022-12-18T11:52:17.107Z,70.87
2022-12-18T11:54:45.321Z,70.90
2022-12-18T11:57:46.417Z,71.14
2022-12-18T12:00:20.866Z,71.18
2022-12-18T12:03:19.951Z,71.10
2022-12-18T12:06:02.265Z,70.99
2022-12-18T12:08:52.143Z,70.87
2022-12-18T12:11:23.615Z,70.73
2022-12-18T12:14:11.977Z,70.66
2022-12-18T12:17:07.331Z,70.66
2022-12-18T12:19:58.407Z,70.75
2022-12-18T12:22:48.873Z,70.73
2022-12-18T12:25:36.521Z,70.53
2022-12-18T12:28:24.211Z,70.58
2022-12-18T12:31:30.541Z,70.58
2022-12-18T12:34:16.543Z,70.60
2022-12-18T12:36:47.303Z,70.42
2022-12-18T12:39:19.427Z,70.49
2022-12-18T12:42:06.736Z,70.26
2022-12-18T12:44:43.766Z,70.22
2022-12-18T12:47:20.245Z,70.07
2022-12-18T12:52:51.672Z,69.96
2022-12-18T12:55:23.755Z,70.00
2022-12-18T12:57:55.327Z,69.97
2022-12-18T13:00:25.226Z,69.92
2022-12-18T13:03:11.938Z,69.92
2022-12-18T13:05:47.165Z,69.94
2022-12-18T13:08:28.698Z,69.79
2022-12-18T13:11:20.268Z,69.82
2022-12-18T13:13:57.048Z,69.92
2022-12-18T13:16:28.260Z,69.72
2022-12-18T13:18:59.636Z,69.74
2022-12-18T13:21:34.274Z,69.62
2022-12-18T13:24:23.612Z,69.59
2022-12-18T13:26:51.677Z,69.54
2022-12-18T13:29:55.137Z,69.50
2022-12-18T13:32:25.511Z,69.58
2022-12-18T13:35:19.125Z,69.53
2022-12-18T13:37:53.969Z,69.59
2022-12-18T13:40:40.478Z,69.60
2022-12-18T13:43:20.341Z,69.61
2022-12-18T13:45:56.629Z,69.55
2022-12-18T13:48:26.815Z,69.34
2022-12-18T13:50:59.832Z,69.36
2022-12-18T13:53:33.560Z,69.42
2022-12-18T13:56:03.471Z,69.35
2022-12-18T13:58:31.541Z,69.34
2022-12-18T14:01:00.334Z,69.32
2022-12-18T14:03:30.432Z,69.25
2022-12-18T14:06:08.857Z,69.23
2022-12-18T14:08:41.170Z,69.28
2022-12-18T14:11:22.866Z,69.24
2022-12-18T14:13:51.580Z,69.15
2022-12-18T14:16:19.780Z,69.21
2022-12-18T14:18:57.122Z,69.18
2022-12-18T14:21:33.535Z,69.16
2022-12-18T14:24:15.160Z,69.11
2022-12-18T14:26:45.971Z,69.09
2022-12-18T14:29:19.840Z,69.02
2022-12-18T14:32:20.054Z,68.85
2022-12-18T14:34:50.997Z,68.81
2022-12-18T14:37:23.728Z,68.87
2022-12-18T14:40:07.165Z,68.96
2022-12-18T14:42:38.747Z,68.91
2022-12-18T14:45:43.121Z,68.94
2022-12-18T14:48:23.623Z,68.87
2022-12-18T14:51:15.501Z,68.97
2022-12-18T14:54:05.350Z,69.01
2022-12-18T14:56:38.004Z,69.01
2022-12-18T14:59:24.853Z,68.96
2022-12-18T15:02:12.285Z,68.91
2022-12-18T15:04:44.009Z,68.96
2022-12-18T15:07:17.400Z,69.08
2022-12-18T15:10:16.022Z,68.88
2022-12-18T15:12:45.180Z,68.86
2022-12-18T15:15:37.923Z,68.90
2022-12-18T15:18:08.934Z,68.86
2022-12-18T15:20:59.993Z,69.04
2022-12-18T15:23:37.413Z,68.88
2022-12-18T15:26:14.217Z,68.86
2022-12-18T15:28:49.844Z,68.90
2022-12-18T15:31:17.765Z,68.93
2022-12-18T15:34:04.144Z,68.96
2022-12-18T15:36:32.328Z,68.79
2022-12-18T15:39:05.126Z,68.75
2022-12-18T15:41:36.737Z,68.86
2022-12-18T15:44:24.699Z,68.89
2022-12-18T15:46:52.664Z,69.03
2022-12-18T15:49:20.774Z,69.18
2022-12-18T15:51:54.896Z,69.00
2022-12-18T15:54:43.142Z,69.03
2022-12-18T15:57:24.288Z,69.00
2022-12-18T15:59:54.268Z,69.06
2022-12-18T16:02:23.850Z,68.99
2022-12-18T16:04:53.309Z,69.13
2022-12-18T16:07:24.889Z,69.14
2022-12-18T16:09:53.620Z,69.17
2022-12-18T16:12:25.079Z,69.25
2022-12-18T16:14:53.207Z,69.10
2022-12-18T16:17:21.485Z,69.09
2022-12-18T16:19:49.502Z,69.14
2022-12-18T16:22:27.717Z,69.18
2022-12-18T16:24:57.371Z,69.10
2022-12-18T16:27:26.074Z,69.21
2022-12-18T16:29:54.151Z,69.12
2022-12-18T16:32:23.328Z,69.16
2022-12-18T16:34:51.794Z,69.27
2022-12-18T16:37:20.116Z,69.19
2022-12-18T16:39:48.000Z,69.16
2022-12-18T16:42:21.109Z,69.15
2022-12-18T16:44:50.674Z,69.17
2022-12-18T16:47:20.006Z,69.22
2022-12-18T16:49:51.685Z,69.28
2022-12-18T16:52:20.720Z,69.28
2022-12-18T16:54:49.056Z,69.37
2022-12-18T16:57:19.474Z,69.35
2022-12-18T16:59:49.194Z,69.36
2022-12-18T17:02:24.448Z,69.32
2022-12-18T17:04:57.329Z,69.34
2022-12-18T17:07:27.054Z,69.42
2022-12-18T17:09:55.486Z,69.60
2022-12-18T17:12:24.021Z,69.72
2022-12-18T17:14:51.902Z,69.71
2022-12-18T17:17:22.268Z,69.62
2022-12-18T17:19:52.417Z,69.51
2022-12-18T17:22:23.281Z,69.60
2022-12-18T17:24:51.433Z,69.60
2022-12-18T17:27:19.411Z,69.61
2022-12-18T17:29:48.824Z,69.67
2022-12-18T17:32:17.818Z,69.71
2022-12-18T17:34:45.906Z,69.74
2022-12-18T17:37:14.460Z,69.77
2022-12-18T17:39:42.473Z,69.71
2022-12-18T17:42:14.972Z,69.77
2022-12-18T17:44:44.834Z,69.82
2022-12-18T17:47:13.624Z,69.82
2022-12-18T17:49:41.957Z,69.90
2022-12-18T17:52:10.407Z,70.07
2022-12-18T17:54:41.432Z,70.00
2022-12-18T17:57:10.323Z,70.03
2022-12-18T17:59:38.256Z,69.91
2022-12-18T18:02:06.243Z,69.96
2022-12-18T18:04:34.580Z,69.92
2022-12-18T18:07:03.085Z,69.93
2022-12-18T18:09:31.230Z,69.98
2022-12-18T18:12:17.797Z,70.03
2022-12-18T18:14:45.951Z,69.94
2022-12-18T18:17:14.052Z,69.93
2022-12-18T18:19:42.208Z,69.99
2022-12-18T18:22:12.176Z,70.00
2022-12-18T18:24:43.382Z,69.95
2022-12-18T18:27:11.247Z,70.02
2022-12-18T18:29:40.122Z,70.03
2022-12-18T18:32:08.073Z,70.01
2022-12-18T18:34:36.180Z,70.16
2022-12-18T18:37:04.478Z,70.20
2022-12-18T18:39:32.717Z,70.14
2022-12-18T18:42:00.972Z,70.15
2022-12-18T18:44:30.603Z,70.16
2022-12-18T18:46:59.825Z,70.16
2022-12-18T18:49:29.918Z,70.09
2022-12-18T18:51:59.352Z,70.24
2022-12-18T18:54:28.031Z,70.16
2022-12-18T18:59:47.156Z,70.12
2022-12-18T19:02:16.555Z,70.07
2022-12-18T19:04:45.755Z,70.08
2022-12-18T19:07:29.463Z,70.11
2022-12-18T19:10:04.197Z,70.10
2022-12-18T19:12:53.017Z,70.18
2022-12-18T19:15:22.990Z,70.14
2022-12-18T19:17:51.053Z,70.23
2022-12-18T19:20:19.333Z,70.17
2022-12-18T19:22:55.380Z,70.33
2022-12-18T19:25:40.722Z,70.23
2022-12-18T19:28:21.243Z,70.20
2022-12-18T19:30:59.411Z,70.31
2022-12-18T19:33:45.952Z,70.28
2022-12-18T19:36:15.998Z,70.40
2022-12-18T19:38:45.389Z,70.53
2022-12-18T19:41:14.783Z,70.44
2022-12-18T19:43:43.532Z,70.48
2022-12-18T19:46:15.457Z,70.48
2022-12-18T19:48:45.061Z,70.57
2022-12-18T19:51:19.733Z,70.50
2022-12-18T19:53:48.472Z,70.56
2022-12-18T19:56:20.021Z,70.58
2022-12-18T19:58:48.540Z,70.47
2022-12-18T20:01:19.165Z,70.64
2022-12-18T20:03:51.529Z,70.57
2022-12-18T20:06:26.244Z,70.47
2022-12-18T20:08:59.450Z,70.76
2022-12-18T20:11:36.379Z,70.84
2022-12-18T20:14:11.876Z,70.79
2022-12-18T20:16:40.648Z,70.73
2022-12-18T20:19:10.963Z,70.76
2022-12-18T20:21:39.158Z,70.63
2022-12-18T20:24:10.401Z,70.76
2022-12-18T20:26:38.700Z,70.69
2022-12-18T20:29:06.877Z,70.84
2022-12-18T20:31:34.778Z,70.80
2022-12-18T20:34:03.657Z,70.65
2022-12-18T20:36:35.267Z,70.59
2022-12-18T20:39:06.534Z,70.60
2022-12-18T20:41:38.164Z,70.85
2022-12-18T20:44:23.246Z,71.10
2022-12-18T20:46:57.700Z,71.05
2022-12-18T20:49:26.758Z,71.03
2022-12-18T20:51:56.465Z,71.05
2022-12-18T20:54:26.956Z,71.01
2022-12-18T20:56:56.350Z,71.03
2022-12-18T20:59:25.721Z,71.10
2022-12-18T21:01:53.977Z,71.14
2022-12-18T21:04:22.835Z,71.08
2022-12-18T21:06:55.689Z,71.07
2022-12-18T21:09:30.348Z,71.00
2022-12-18T21:12:33.396Z,71.04
2022-12-18T21:15:09.874Z,70.93
2022-12-18T21:17:44.075Z,70.93
2022-12-18T21:20:17.513Z,70.87
2022-12-18T21:22:49.164Z,70.92
2022-12-18T21:25:17.197Z,70.86
2022-12-18T21:27:45.103Z,70.91
2022-12-18T21:30:15.021Z,71.00
2022-12-18T21:32:43.169Z,71.06
2022-12-18T21:35:11.208Z,71.03
2022-12-18T21:37:39.194Z,71.05
2022-12-18T21:40:07.945Z,70.90
2022-12-18T21:42:54.349Z,70.86
2022-12-18T21:45:22.292Z,71.02
2022-12-18T21:47:50.181Z,70.98
2022-12-18T21:50:18.224Z,71.06
2022-12-18T21:52:46.092Z,71.09
2022-12-18T21:55:14.080Z,71.03
2022-12-18T21:57:41.945Z,71.09
2022-12-18T22:00:18.213Z,71.05
2022-12-18T22:03:05.652Z,71.10
2022-12-18T22:05:37.262Z,71.19
2022-12-18T22:08:06.697Z,71.24
2022-12-18T22:10:35.094Z,71.07
2022-12-18T22:13:07.628Z,71.07
2022-12-18T22:15:35.653Z,71.13
2022-12-18T22:18:03.859Z,71.23
2022-12-18T22:20:31.756Z,71.11
2022-12-18T22:23:05.669Z,71.17
2022-12-18T22:25:35.796Z,71.26
2022-12-18T22:28:26.364Z,71.12
2022-12-18T22:30:57.718Z,70.95
2022-12-18T22:33:27.776Z,71.07
2022-12-18T22:35:55.625Z,71.08
2022-12-18T22:38:23.502Z,71.17
2022-12-18T22:40:51.390Z,71.21
2022-12-18T22:43:19.390Z,71.27
2022-12-18T22:45:49.022Z,71.34
2022-12-18T22:48:17.131Z,71.30
2022-12-18T22:50:45.046Z,71.25
2022-12-18T22:53:13.017Z,71.33
2022-12-18T22:55:40.934Z,71.11
2022-12-18T22:58:08.811Z,71.20
2022-12-18T23:00:36.798Z,71.22
2022-12-18T23:03:05.012Z,71.16
2022-12-18T23:05:35.408Z,71.28
2022-12-18T23:08:03.494Z,71.41
2022-12-18T23:10:31.413Z,71.50
2022-12-18T23:12:59.335Z,71.67
2022-12-18T23:15:28.406Z,71.67
2022-12-18T23:17:59.726Z,71.72
2022-12-18T23:20:27.992Z,71.65
2022-12-18T23:22:55.964Z,71.67
2022-12-18T23:25:23.873Z,71.68
2022-12-18T23:27:51.878Z,71.72
2022-12-18T23:30:19.870Z,71.81
2022-12-18T23:32:48.328Z,71.74
2022-12-18T23:35:17.363Z,71.84
2022-12-18T23:37:58.745Z,72.15
2022-12-18T23:40:29.357Z,72.62
2022-12-18T23:42:59.083Z,72.97
2022-12-18T23:45:27.057Z,73.12
2022-12-18T23:47:54.974Z,73.22
2022-12-18T23:50:28.950Z,73.15
2022-12-18T23:53:03.260Z,73.34
2022-12-18T23:55:38.835Z,73.29
2022-12-18T23:58:08.541Z,73.23
